Time;durP1;ratioP1;P1;durP2;ratioP2;P2;SDS_P1;SDS_P2;PMS_P1;PMS_P2;Temp;Humidity;BMP_temperature;BMP_pressure;BME280_temperature;BME280_humidity;BME280_pressure;Samples;Min_cycle;Max_cycle;Signal;HPM_P1;HPM_P2
2022/03/14 17:17:18;;;;;;;4.28;1.95;;;;;;;12.38;45.79;100046.47;2619290;46;20026;-65
2022/03/14 17:19:49;;;;;;;6.75;2.20;;;;;;;12.32;46.05;100039.19;2617971;54;20023;-66
2022/03/14 17:22:19;;;;;;;5.45;2.20;;;;;;;12.23;46.47;100043.72;2618472;39;20378;-66
2022/03/14 17:24:48;;;;;;;6.43;1.98;;;;;;;12.17;46.34;100041.78;2617726;54;20027;-67
2022/03/14 17:27:18;;;;;;;7.60;2.78;;;;;;;12.06;47.11;100039.50;2617927;54;20035;-66
2022/03/14 17:29:47;;;;;;;5.10;2.35;;;;;;;12.02;47.45;100046.94;2617911;54;20114;-67
2022/03/14 17:32:20;;;;;;;3.60;2.00;;;;;;;11.96;47.14;100039.72;2617887;54;20045;-67
2022/03/14 17:34:50;;;;;;;5.80;2.00;;;;;;;11.92;47.58;100034.88;2617532;54;20037;-66
2022/03/14 17:37:19;;;;;;;6.50;2.20;;;;;;;11.78;47.54;100036.41;2617949;54;20041;-66
2022/03/14 17:39:49;;;;;;;5.45;2.00;;;;;;;11.74;47.76;100035.91;2617645;54;20080;-67
2022/03/14 17:42:19;;;;;;;5.65;2.33;;;;;;;11.71;47.73;100046.03;2617182;47;20023;-66
2022/03/14 17:44:49;;;;;;;5.90;2.15;;;;;;;11.64;48.27;100046.72;2617496;54;20050;-67
2022/03/14 17:47:22;;;;;;;5.82;2.58;;;;;;;11.59;48.02;100046.41;2617223;47;20033;-66
2022/03/14 17:49:53;;;;;;;6.00;2.42;;;;;;;11.48;48.25;100045.91;2617758;54;20042;-67
2022/03/14 17:52:23;;;;;;;5.90;2.40;;;;;;;11.36;48.58;100048.09;2617278;54;20544;-67
2022/03/14 17:54:53;;;;;;;7.20;2.38;;;;;;;11.23;49.53;100053.88;2617708;54;20050;-67
2022/03/14 17:57:23;;;;;;;5.15;2.90;;;;;;;11.18;49.43;100052.72;2617885;54;20038;-65
2022/03/14 17:59:55;;;;;;;5.38;2.70;;;;;;;11.07;50.01;100064.47;2617823;31;20457;-66
2022/03/14 18:02:28;;;;;;;5.45;2.65;;;;;;;11.04;50.37;100062.16;2617696;54;20038;-67
2022/03/14 18:05:00;;;;;;;6.50;3.28;;;;;;;10.99;50.52;100069.75;2617800;39;20394;-66
2022/03/14 18:07:30;;;;;;;10.98;2.90;;;;;;;10.94;50.79;100064.13;2617754;54;20022;-65
2022/03/14 18:10:01;;;;;;;5.03;2.85;;;;;;;10.86;50.77;100068.44;2617637;54;20114;-66
2022/03/14 18:12:31;;;;;;;4.03;2.90;;;;;;;10.79;51.11;100071.88;2618263;39;20421;-67
2022/03/14 18:15:00;;;;;;;6.63;3.35;;;;;;;10.61;51.40;100070.19;2617494;54;20169;-66
2022/03/14 18:17:32;;;;;;;6.90;2.97;;;;;;;10.50;52.03;100074.97;2617757;54;20031;-66
2022/03/14 18:20:02;;;;;;;5.15;2.70;;;;;;;10.27;52.34;100067.59;2617881;54;20141;-65
2022/03/14 18:22:32;;;;;;;7.50;3.15;;;;;;;10.25;52.27;100066.94;2619320;54;20553;-67
2022/03/14 18:25:02;;;;;;;7.35;3.75;;;;;;;10.20;52.50;100071.00;2617853;39;20162;-66
2022/03/14 18:27:32;;;;;;;5.68;3.70;;;;;;;10.21;52.55;100068.22;2617829;54;20031;-66
2022/03/14 18:30:02;;;;;;;9.43;3.70;;;;;;;10.24;53.04;100072.34;2616870;54;20057;-66
2022/03/14 18:32:34;;;;;;;6.68;3.47;;;;;;;10.22;53.24;100080.44;2617272;54;20023;-66
2022/03/14 18:35:04;;;;;;;7.43;4.13;;;;;;;10.16;53.57;100079.28;2617378;54;20022;-66
2022/03/14 18:37:34;;;;;;;6.38;4.05;;;;;;;10.11;53.49;100078.91;2617906;39;20393;-66
2022/03/14 18:40:05;;;;;;;5.72;4.18;;;;;;;10.09;54.06;100086.16;2616903;47;20049;-65
2022/03/14 18:42:51;;;;;;;7.13;4.05;;;;;;;10.01;54.30;100082.66;2617177;47;20026;-68
2022/03/14 18:45:21;;;;;;;7.60;4.95;;;;;;;9.92;54.86;100071.22;2617296;54;20081;-65
2022/03/14 18:47:53;;;;;;;6.78;4.60;;;;;;;9.83;55.02;100080.91;2618589;39;20155;-65
2022/03/14 18:50:23;;;;;;;8.48;4.47;;;;;;;9.69;55.51;100081.50;2617739;54;20030;-65
2022/03/14 18:53:06;;;;;;;8.52;4.28;;;;;;;9.57;55.83;100080.09;2617750;54;20572;-66
2022/03/14 18:55:39;;;;;;;8.43;4.80;;;;;;;9.53;56.14;100076.94;2617999;54;20042;-65
2022/03/14 18:58:08;;;;;;;7.45;5.03;;;;;;;9.57;56.16;100091.47;2618062;47;20038;-67
2022/03/14 19:00:39;;;;;;;10.10;6.03;;;;;;;9.64;55.79;100095.16;2617947;47;20041;-65
2022/03/14 19:03:11;;;;;;;11.73;6.05;;;;;;;9.61;56.38;100090.19;2617678;47;20133;-65
2022/03/14 19:05:41;;;;;;;10.18;5.53;;;;;;;9.56;56.20;100097.75;2617427;47;20065;-65
2022/03/14 19:08:12;;;;;;;13.00;7.00;;;;;;;9.43;56.47;100103.44;2618471;54;20030;-66
2022/03/14 19:10:41;;;;;;;11.40;5.45;;;;;;;9.25;56.95;100104.44;2617792;54;20533;-66
2022/03/14 19:13:11;;;;;;;9.35;4.55;;;;;;;9.06;58.08;100102.75;2617816;54;20031;-67
2022/03/14 19:15:42;;;;;;;5.75;3.92;;;;;;;8.90;58.22;100099.00;2617906;54;20042;-66
2022/03/14 19:18:15;;;;;;;8.57;3.95;;;;;;;8.84;59.01;100106.69;2617852;47;20038;-65
2022/03/14 19:20:47;;;;;;;8.32;4.38;;;;;;;8.87;59.09;100104.59;2618102;54;20632;-67
2022/03/14 19:23:16;;;;;;;6.22;3.95;;;;;;;8.90;58.65;100104.28;2617848;47;20038;-66
2022/03/14 19:25:47;;;;;;;6.80;4.35;;;;;;;8.84;58.97;100112.78;2617623;47;20141;-67
2022/03/14 19:28:21;;;;;;;9.65;4.50;;;;;;;8.83;59.32;100115.56;2618305;54;20057;-66
2022/03/14 19:30:54;;;;;;;6.27;4.57;;;;;;;8.75;59.18;100116.31;2621007;54;20053;-67
2022/03/14 19:33:30;;;;;;;5.63;4.10;;;;;;;8.68;59.35;100115.25;2625855;31;20735;-66
2022/03/14 19:36:02;;;;;;;4.88;3.95;;;;;;;8.63;59.85;100120.16;2625041;54;20033;-66
2022/03/14 19:38:32;;;;;;;6.03;4.28;;;;;;;8.71;59.75;100122.03;2622607;47;20038;-66
2022/03/14 19:41:02;;;;;;;6.13;3.97;;;;;;;8.74;59.94;100119.94;2617940;54;20081;-67
2022/03/14 19:43:32;;;;;;;5.25;3.60;;;;;;;8.76;59.69;100128.50;2618418;54;20030;-67
2022/03/14 19:46:02;;;;;;;7.20;4.00;;;;;;;8.76;59.50;100123.25;2618322;54;20038;-67
2022/03/14 19:48:35;;;;;;;5.47;4.35;;;;;;;8.72;59.82;100121.06;2618319;54;20035;-67
2022/03/14 19:51:05;;;;;;;10.67;6.77;;;;;;;8.59;59.65;100126.69;2618286;54;20031;-66
2022/03/14 19:53:37;;;;;;;8.38;6.93;;;;;;;8.48;60.13;100132.16;2618445;54;20031;-66
2022/03/14 19:56:07;;;;;;;10.25;5.80;;;;;;;8.48;60.56;100135.59;2618308;54;20081;-66
2022/03/14 19:58:37;;;;;;;8.27;5.18;;;;;;;8.51;60.21;100134.50;2618226;54;20027;-67
2022/03/14 20:01:06;;;;;;;8.80;4.72;;;;;;;8.42;60.21;100144.94;2617285;47;20046;-66
2022/03/14 20:03:39;;;;;;;7.32;4.65;;;;;;;8.37;60.73;100141.09;2618180;54;20030;-65
2022/03/14 20:06:14;;;;;;;8.40;6.05;;;;;;;8.25;60.75;100140.41;2617524;54;20023;-66
2022/03/14 20:08:51;;;;;;;19.08;12.30;;;;;;;8.24;60.97;100137.91;2617821;54;20154;-66
2022/03/14 20:11:21;;;;;;;23.60;12.27;;;;;;;8.26;61.01;100136.81;2618204;54;20038;-65
2022/03/14 20:13:55;;;;;;;16.08;7.88;;;;;;;8.27;61.43;100133.19;2618078;54;20085;-65
2022/03/14 20:16:27;;;;;;;10.85;6.07;;;;;;;8.36;61.22;100142.84;2618024;54;20038;-65
2022/03/14 20:18:59;;;;;;;8.13;5.40;;;;;;;8.42;61.00;100141.47;2617993;54;20565;-67
2022/03/14 20:21:31;;;;;;;6.15;4.80;;;;;;;8.37;60.86;100139.28;2618682;39;20429;-66
2022/03/14 20:24:08;;;;;;;12.32;5.60;;;;;;;8.33;61.21;100140.53;2618351;54;20549;-66
2022/03/14 20:26:38;;;;;;;8.75;6.13;;;;;;;8.30;61.06;100135.53;2618362;54;20037;-66
2022/03/14 20:29:08;;;;;;;11.77;6.75;;;;;;;8.19;61.09;100138.34;2618078;47;20053;-66
2022/03/14 20:31:38;;;;;;;9.60;6.10;;;;;;;8.05;61.33;100139.66;2619826;54;20026;-66
2022/03/14 20:34:10;;;;;;;9.35;6.25;;;;;;;8.00;61.51;100141.91;2622895;54;20052;-66
2022/03/14 20:36:40;;;;;;;10.35;5.78;;;;;;;7.97;61.44;100144.81;2621940;54;20023;-65
2022/03/14 20:39:09;;;;;;;12.80;6.55;;;;;;;7.93;62.11;100131.09;2622443;54;20037;-66
2022/03/14 20:41:39;;;;;;;15.27;8.57;;;;;;;7.89;61.81;100136.78;2621947;54;20030;-67
2022/03/14 20:44:10;;;;;;;10.32;6.60;;;;;;;7.78;61.78;100137.78;2622497;54;20039;-65
2022/03/14 20:46:39;;;;;;;10.88;6.05;;;;;;;7.61;62.61;100134.06;2622357;54;20042;-66
2022/03/14 20:49:12;;;;;;;10.75;7.05;;;;;;;7.48;62.66;100130.91;2620975;54;20042;-66
2022/03/14 20:51:41;;;;;;;14.43;10.23;;;;;;;7.41;62.82;100140.31;2621052;47;20030;-68
2022/03/14 20:54:11;;;;;;;14.73;8.00;;;;;;;7.46;63.57;100140.72;2621683;54;20794;-66
2022/03/14 20:56:41;;;;;;;13.80;7.80;;;;;;;7.52;63.15;100136.72;2623579;47;20030;-67
2022/03/14 20:59:11;;;;;;;11.55;7.10;;;;;;;7.51;62.89;100135.91;2624037;54;20042;-69
2022/03/14 21:01:41;;;;;;;14.50;9.00;;;;;;;7.47;63.16;100131.88;2623559;54;20035;-69
2022/03/14 21:04:15;;;;;;;14.73;8.43;;;;;;;7.46;63.73;100138.09;2622148;47;20556;-67
2022/03/14 21:06:52;;;;;;;9.55;7.05;;;;;;;7.55;63.37;100142.53;2622859;47;20068;-68
2022/03/14 21:09:21;;;;;;;10.77;6.90;;;;;;;7.54;62.85;100138.22;2623168;54;20019;-68
2022/03/14 21:11:52;;;;;;;10.70;6.03;;;;;;;7.46;62.75;100146.00;2622938;54;20061;-67
2022/03/14 21:14:22;;;;;;;8.40;6.35;;;;;;;7.31;63.14;100137.72;2623020;54;20585;-68
2022/03/14 21:16:51;;;;;;;9.68;6.90;;;;;;;7.27;63.53;100148.66;2622561;54;20027;-67
2022/03/14 21:19:24;;;;;;;10.85;7.55;;;;;;;7.28;64.04;100148.50;2621650;46;20034;-66
2022/03/14 21:21:55;;;;;;;12.98;7.13;;;;;;;7.24;63.38;100149.75;2622056;54;20041;-67
2022/03/14 21:24:25;;;;;;;11.43;8.27;;;;;;;7.17;63.84;100154.72;2624386;54;20069;-66
2022/03/14 21:26:57;;;;;;;8.50;6.60;;;;;;;7.23;64.32;100147.25;2623302;54;20030;-67
2022/03/14 21:29:28;;;;;;;14.20;7.68;;;;;;;7.26;64.03;100153.06;2621678;54;20039;-67
2022/03/14 21:31:59;;;;;;;10.38;7.03;;;;;;;7.24;63.92;100146.28;2621101;51;20097;-65
2022/03/14 21:34:32;;;;;;;14.05;8.43;;;;;;;7.13;63.79;100150.69;2619795;54;20038;-65
2022/03/14 21:37:01;;;;;;;10.57;6.78;;;;;;;7.13;64.33;100149.88;2621037;47;20541;-69
2022/03/14 21:39:31;;;;;;;12.80;6.63;;;;;;;7.15;64.39;100138.25;2620748;54;20045;-66
2022/03/14 21:42:01;;;;;;;10.90;6.65;;;;;;;7.11;63.93;100139.50;2622339;47;20834;-67
2022/03/14 21:44:31;;;;;;;10.52;6.75;;;;;;;7.00;64.37;100137.00;2623076;54;20561;-69
2022/03/14 21:47:01;;;;;;;9.10;5.80;;;;;;;6.90;64.30;100141.44;2621748;47;20046;-67
2022/03/14 21:49:33;;;;;;;13.23;6.95;;;;;;;6.86;65.06;100134.78;2620915;47;20035;-67
2022/03/14 21:52:03;;;;;;;11.55;8.10;;;;;;;6.86;65.22;100147.91;2618180;54;20061;-67
2022/03/14 21:54:33;;;;;;;12.10;7.80;;;;;;;6.93;64.90;100144.59;2618395;54;20022;-67
2022/03/14 21:57:03;;;;;;;8.68;6.38;;;;;;;6.98;64.81;100144.19;2619862;54;20030;-66
2022/03/14 21:59:33;;;;;;;11.25;7.72;;;;;;;6.98;64.91;100127.56;2620473;47;20030;-67
2022/03/14 22:02:02;;;;;;;12.27;7.13;;;;;;;6.97;64.71;100131.19;2620701;54;20034;-67
2022/03/14 22:04:35;;;;;;;14.98;7.25;;;;;;;6.83;65.05;100127.97;2620860;54;20034;-66
2022/03/14 22:07:06;;;;;;;11.27;6.45;;;;;;;6.65;65.33;100137.47;2623217;54;20034;-68
2022/03/14 22:09:35;;;;;;;9.57;6.05;;;;;;;6.74;66.01;100139.31;2623624;39;20437;-67
2022/03/14 22:12:06;;;;;;;10.25;6.95;;;;;;;6.88;65.62;100132.81;2622255;54;20534;-68
2022/03/14 22:14:37;;;;;;;10.73;7.18;;;;;;;6.99;65.05;100129.25;2622719;54;20096;-68
2022/03/14 22:17:08;;;;;;;13.65;7.22;;;;;;;6.99;64.85;100134.50;2622497;46;20050;-68
2022/03/14 22:19:40;;;;;;;12.07;7.40;;;;;;;6.90;65.13;100129.09;2622611;54;20030;-67
2022/03/14 22:22:12;;;;;;;12.40;8.00;;;;;;;6.85;64.90;100120.78;2621082;54;20054;-67
2022/03/14 22:24:51;;;;;;;8.68;6.95;;;;;;;6.73;65.11;100128.91;2620957;47;20018;-68
2022/03/14 22:27:22;;;;;;;10.45;6.97;;;;;;;6.77;65.12;100127.69;2624038;39;20425;-66
2022/03/14 22:29:51;;;;;;;14.23;8.23;;;;;;;6.84;65.05;100124.38;2624610;54;20037;-68
2022/03/14 22:32:26;;;;;;;16.30;8.95;;;;;;;6.78;64.86;100122.31;2625058;54;20045;-70
2022/03/14 22:34:59;;;;;;;15.10;8.40;;;;;;;6.62;65.07;100130.72;2624720;54;20030;-70
2022/03/14 22:37:29;;;;;;;12.27;7.72;;;;;;;6.59;65.83;100130.16;2624369;47;20050;-68
2022/03/14 22:39:59;;;;;;;9.15;6.43;;;;;;;6.47;65.72;100128.59;2623541;54;20030;-70
2022/03/14 22:42:29;;;;;;;8.93;6.38;;;;;;;6.48;65.67;100127.63;2623448;54;20030;-66
2022/03/14 22:44:59;;;;;;;8.13;5.95;;;;;;;6.49;66.07;100117.00;2623393;54;20034;-68
2022/03/14 22:47:29;;;;;;;9.50;7.00;;;;;;;6.62;65.96;100122.81;2624431;54;20039;-69
2022/03/14 22:50:01;;;;;;;9.20;6.55;;;;;;;6.68;65.87;100111.75;2623931;54;20061;-69
2022/03/14 22:52:30;;;;;;;14.38;7.70;;;;;;;6.64;65.34;100109.53;2621944;54;20034;-67
2022/03/14 22:55:00;;;;;;;9.63;6.75;;;;;;;6.54;65.85;100104.28;2621995;54;20030;-68
2022/03/14 22:57:30;;;;;;;9.70;6.57;;;;;;;6.53;66.04;100100.00;2622456;54;20572;-67
2022/03/14 23:00:02;;;;;;;13.27;7.50;;;;;;;6.62;66.51;100100.97;2624252;54;20098;-68
2022/03/14 23:05:32;;;;;;;33.92;12.55;;;;;;;6.77;66.42;100106.66;2625215;54;20541;-63
2022/03/14 23:13:27;;;;;;;9.13;5.90;;;;;;;6.50;65.79;100102.06;2625352;54;20030;-61
2022/03/14 23:15:58;;;;;;;10.20;6.30;;;;;;;6.48;66.34;100102.19;2624701;39;20472;-68
2022/03/14 23:18:29;;;;;;;11.35;6.18;;;;;;;6.44;66.08;100104.22;2619036;54;20172;-66
2022/03/14 23:21:02;;;;;;;8.27;6.25;;;;;;;6.43;65.99;100102.59;2619338;31;20513;-67
